Time;durP1;ratioP1;P1;durP2;ratioP2;P2;SDS_P1;SDS_P2;PMS_P1;PMS_P2;Temp;Humidity;BMP_temperature;BMP_pressure;BME280_temperature;BME280_humidity;BME280_pressure;Samples;Min_cycle;Max_cycle;Signal;HPM_P1;HPM_P2
2024/01/04 00:01:05;;;;;;;10.90;4.82;;;;;;;;;;10339865;23;20143;-91
2024/01/04 00:05:15;;;;;;;10.27;4.80;;;;;;;;;;10356783;23;20069;-92
2024/01/04 00:09:19;;;;;;;11.30;4.47;;;;;;;;;;10339858;23;20020;-92
2024/01/04 00:13:24;;;;;;;11.05;5.00;;;;;;;;;;10340353;23;20020;-91
2024/01/04 00:17:27;;;;;;;9.68;4.90;;;;;;;;;;10339843;23;20044;-91
2024/01/04 00:21:29;;;;;;;11.60;5.32;;;;;;;;;;10339966;23;20016;-91
2024/01/04 00:25:34;;;;;;;10.95;5.07;;;;;;;;;;10340469;23;20591;-92
2024/01/04 00:29:37;;;;;;;9.00;4.85;;;;;;;;;;10340482;23;20031;-90
2024/01/04 00:33:40;;;;;;;12.00;5.30;;;;;;;;;;10339680;23;20020;-90
2024/01/04 00:37:43;;;;;;;14.15;5.35;;;;;;;;;;10339578;23;20024;-91
2024/01/04 00:41:47;;;;;;;12.90;5.22;;;;;;;;;;10339347;23;20039;-91
2024/01/04 00:45:50;;;;;;;13.05;4.65;;;;;;;;;;10339252;23;20055;-90
2024/01/04 00:49:53;;;;;;;11.38;5.00;;;;;;;;;;10339347;23;20727;-92
2024/01/04 00:53:56;;;;;;;13.60;5.13;;;;;;;;;;10338991;23;20445;-91
2024/01/04 00:58:02;;;;;;;9.80;4.35;;;;;;;;;;10339119;23;20029;-91
2024/01/04 01:02:05;;;;;;;12.23;5.03;;;;;;;;;;10344300;23;20024;-90
2024/01/04 01:06:11;;;;;;;9.15;4.32;;;;;;;;;;10339052;23;20023;-91
2024/01/04 01:10:14;;;;;;;9.88;4.22;;;;;;;;;;10355812;23;20509;-91
2024/01/04 01:14:18;;;;;;;7.97;3.97;;;;;;;;;;10338929;23;20341;-91
2024/01/04 01:18:21;;;;;;;9.13;3.92;;;;;;;;;;10338862;23;20470;-91
2024/01/04 01:22:26;;;;;;;6.53;3.92;;;;;;;;;;10311890;23;20098;-91
2024/01/04 01:26:29;;;;;;;8.27;3.50;;;;;;;;;;10311739;23;20024;-91
2024/01/04 01:30:33;;;;;;;8.48;3.10;;;;;;;;;;10338769;23;20019;-91
2024/01/04 01:34:36;;;;;;;7.45;3.67;;;;;;;;;;10338392;23;20054;-90
2024/01/04 01:38:40;;;;;;;7.13;3.22;;;;;;;;;;10338511;23;20054;-91
2024/01/04 01:42:48;;;;;;;7.80;2.88;;;;;;;;;;10311388;23;20214;-91
2024/01/04 01:46:52;;;;;;;9.32;3.80;;;;;;;;;;10355102;23;20016;-92
2024/01/04 01:50:56;;;;;;;6.45;3.25;;;;;;;;;;10338414;23;20020;-91
2024/01/04 01:54:59;;;;;;;8.60;3.92;;;;;;;;;;10337942;23;20024;-92
2024/01/04 01:59:02;;;;;;;5.93;3.25;;;;;;;;;;10338121;23;20016;-91
2024/01/04 02:03:10;;;;;;;7.20;3.33;;;;;;;;;;10337697;23;20448;-92
2024/01/04 02:07:13;;;;;;;9.45;3.63;;;;;;;;;;10354794;23;20103;-93
2024/01/04 02:11:17;;;;;;;9.80;3.50;;;;;;;;;;10337973;23;20500;-91
2024/01/04 02:15:20;;;;;;;8.23;3.75;;;;;;;;;;10337719;23;20105;-90
2024/01/04 02:19:27;;;;;;;8.32;3.75;;;;;;;;;;10337626;23;20020;-92
2024/01/04 02:23:31;;;;;;;5.57;3.33;;;;;;;;;;10354802;23;20094;-90
2024/01/04 02:27:34;;;;;;;8.45;3.10;;;;;;;;;;10337608;23;20026;-91
2024/01/04 02:31:37;;;;;;;8.02;3.03;;;;;;;;;;10337567;23;20121;-91
2024/01/04 02:35:40;;;;;;;7.00;2.38;;;;;;;;;;10337886;23;20459;-90
2024/01/04 02:39:44;;;;;;;6.15;2.95;;;;;;;;;;10337463;23;20027;-91
2024/01/04 02:43:47;;;;;;;10.73;3.33;;;;;;;;;;10337384;23;20100;-91
2024/01/04 02:47:50;;;;;;;8.02;2.85;;;;;;;;;;10337396;23;20322;-90
2024/01/04 02:51:53;;;;;;;8.05;3.70;;;;;;;;;;10337453;23;20020;-91
2024/01/04 02:55:58;;;;;;;7.03;3.08;;;;;;;;;;10337202;23;20091;-91
2024/01/04 03:00:01;;;;;;;5.15;2.97;;;;;;;;;;10336847;23;20460;-92
2024/01/04 03:04:04;;;;;;;6.53;3.15;;;;;;;;;;10354096;23;20026;-91
2024/01/04 03:08:07;;;;;;;6.70;2.78;;;;;;;;;;10337271;23;20016;-92
2024/01/04 03:12:12;;;;;;;4.28;2.60;;;;;;;;;;10337276;23;20016;-92
2024/01/04 03:16:15;;;;;;;7.00;3.40;;;;;;;;;;10336873;23;20388;-91
2024/01/04 03:20:18;;;;;;;6.28;3.13;;;;;;;;;;10337256;23;20016;-91
2024/01/04 03:24:21;;;;;;;7.70;3.35;;;;;;;;;;10337043;23;20020;-90
2024/01/04 03:28:25;;;;;;;7.55;3.10;;;;;;;;;;10337069;23;20020;-91
2024/01/04 03:32:28;;;;;;;7.28;3.28;;;;;;;;;;10336957;23;20027;-91
2024/01/04 03:36:31;;;;;;;6.57;2.88;;;;;;;;;;10336778;23;20096;-91
2024/01/04 03:40:34;;;;;;;7.05;3.20;;;;;;;;;;10336919;23;20024;-93
2024/01/04 03:44:38;;;;;;;6.82;2.92;;;;;;;;;;10337551;23;20095;-92
2024/01/04 03:48:41;;;;;;;5.07;2.50;;;;;;;;;;10336835;23;20375;-92
2024/01/04 03:52:44;;;;;;;5.43;2.88;;;;;;;;;;10337357;23;20027;-92
2024/01/04 03:56:47;;;;;;;5.35;2.80;;;;;;;;;;10336732;23;20043;-91
2024/01/04 04:00:51;;;;;;;6.40;3.08;;;;;;;;;;10336573;23;20030;-92
2024/01/04 04:04:56;;;;;;;7.85;2.80;;;;;;;;;;10336698;23;20048;-92
2024/01/04 04:08:59;;;;;;;7.60;3.03;;;;;;;;;;10337354;23;20016;-92
2024/01/04 04:13:01;;;;;;;5.30;2.70;;;;;;;;;;10338531;23;20093;-91
2024/01/04 04:17:06;;;;;;;5.22;2.60;;;;;;;;;;10336601;23;20016;-91
2024/01/04 04:21:09;;;;;;;6.78;2.90;;;;;;;;;;10336539;23;20433;-92
2024/01/04 04:25:12;;;;;;;7.53;2.45;;;;;;;;;;10336490;23;20020;-91
2024/01/04 04:29:15;;;;;;;6.57;2.80;;;;;;;;;;10339711;23;20023;-92
2024/01/04 04:33:19;;;;;;;6.93;2.92;;;;;;;;;;10339631;23;20027;-93
2024/01/04 04:37:25;;;;;;;6.22;2.75;;;;;;;;;;10356620;23;20065;-93
2024/01/04 04:41:28;;;;;;;4.38;2.60;;;;;;;;;;10312317;23;20082;-92
2024/01/04 04:45:31;;;;;;;8.02;3.00;;;;;;;;;;10339478;23;20049;-91
2024/01/04 04:49:35;;;;;;;6.35;2.90;;;;;;;;;;10339556;23;20016;-91
2024/01/04 04:53:38;;;;;;;6.60;2.92;;;;;;;;;;10339715;23;20019;-91
2024/01/04 04:57:41;;;;;;;8.63;3.33;;;;;;;;;;10339164;23;20047;-91
2024/01/04 05:01:44;;;;;;;8.27;3.22;;;;;;;;;;10339337;23;20115;-92
2024/01/04 05:05:48;;;;;;;5.68;3.00;;;;;;;;;;10338947;23;20074;-92
2024/01/04 05:09:51;;;;;;;10.90;5.57;;;;;;;;;;10339439;23;20044;-91
2024/01/04 05:13:54;;;;;;;7.28;3.80;;;;;;;;;;10339155;23;20441;-91
2024/01/04 05:17:57;;;;;;;9.57;5.55;;;;;;;;;;10339009;23;20020;-91
2024/01/04 05:22:03;;;;;;;7.22;4.32;;;;;;;;;;10338666;23;20053;-91
2024/01/04 05:26:06;;;;;;;5.22;3.08;;;;;;;;;;10355457;23;20094;-91
2024/01/04 05:30:10;;;;;;;5.75;3.15;;;;;;;;;;10338638;23;20023;-91
2024/01/04 05:34:13;;;;;;;9.20;4.22;;;;;;;;;;10338600;23;20027;-92
2024/01/04 05:38:17;;;;;;;20.75;12.02;;;;;;;;;;10338128;23;20016;-91
2024/01/04 05:42:23;;;;;;;7.93;3.75;;;;;;;;;;10338508;23;20026;-91
2024/01/04 05:46:26;;;;;;;8.73;4.47;;;;;;;;;;10355088;23;20016;-91
2024/01/04 05:50:29;;;;;;;6.72;3.83;;;;;;;;;;10311391;23;20020;-92
2024/01/04 05:54:33;;;;;;;5.50;3.00;;;;;;;;;;10338516;23;20352;-91
2024/01/04 05:58:36;;;;;;;6.68;3.03;;;;;;;;;;10338056;23;20525;-90
2024/01/04 06:02:39;;;;;;;7.82;2.80;;;;;;;;;;10338102;23;20026;-90
2024/01/04 06:06:42;;;;;;;10.00;2.90;;;;;;;;;;10312510;23;20077;-92
2024/01/04 06:10:47;;;;;;;9.63;5.30;;;;;;;;;;10338216;23;20089;-92
2024/01/04 06:14:51;;;;;;;10.75;5.15;;;;;;;;;;10337697;23;20050;-90
2024/01/04 06:18:54;;;;;;;8.32;3.78;;;;;;;;;;10337846;23;20095;-92
2024/01/04 06:22:57;;;;;;;6.65;3.60;;;;;;;;;;10337829;23;20050;-92
2024/01/04 06:27:01;;;;;;;11.55;6.05;;;;;;;;;;10338226;23;20429;-91
2024/01/04 06:31:04;;;;;;;7.45;3.83;;;;;;;;;;10337644;23;20483;-91
2024/01/04 06:35:08;;;;;;;6.22;3.35;;;;;;;;;;10310451;23;20040;-93
2024/01/04 06:39:12;;;;;;;5.80;2.90;;;;;;;;;;10337801;23;20016;-91
2024/01/04 06:43:16;;;;;;;5.88;2.60;;;;;;;;;;10337781;23;20024;-91
2024/01/04 06:47:19;;;;;;;5.43;2.47;;;;;;;;;;10337645;23;20039;-90
2024/01/04 06:51:22;;;;;;;4.20;2.45;;;;;;;;;;10337361;23;20023;-93
2024/01/04 06:55:24;;;;;;;3.28;2.20;;;;;;;;;;10310598;23;20019;-91
2024/01/04 06:59:29;;;;;;;13.02;6.22;;;;;;;;;;10337159;23;20429;-92
2024/01/04 07:03:32;;;;;;;13.00;4.88;;;;;;;;;;10354294;23;20119;-90
2024/01/04 07:07:36;;;;;;;8.27;4.40;;;;;;;;;;10337416;23;20583;-92
2024/01/04 07:11:40;;;;;;;6.80;3.90;;;;;;;;;;10337204;23;20326;-91
2024/01/04 07:15:45;;;;;;;7.25;3.53;;;;;;;;;;10336822;23;20043;-90
2024/01/04 07:19:48;;;;;;;6.43;3.60;;;;;;;;;;10337103;23;20027;-91
2024/01/04 07:23:50;;;;;;;6.72;3.72;;;;;;;;;;10338252;23;20039;-90
2024/01/04 07:27:54;;;;;;;8.18;4.82;;;;;;;;;;10341342;23;20518;-91
2024/01/04 07:31:59;;;;;;;14.45;7.25;;;;;;;;;;10337922;23;20326;-91
2024/01/04 07:36:02;;;;;;;12.95;6.85;;;;;;;;;;10337056;23;20020;-91
2024/01/04 07:40:07;;;;;;;9.70;5.22;;;;;;;;;;10337123;23;20051;-90
2024/01/04 07:44:11;;;;;;;8.90;4.75;;;;;;;;;;10336788;23;20081;-91
2024/01/04 07:48:16;;;;;;;9.98;5.70;;;;;;;;;;10336693;23;20322;-91
2024/01/04 07:52:28;;;;;;;10.50;5.60;;;;;;;;;;10312221;23;20074;-90
2024/01/04 07:56:34;;;;;;;10.98;5.55;;;;;;;;;;10354951;23;20051;-90
2024/01/04 08:00:37;;;;;;;13.82;7.40;;;;;;;;;;10335659;23;20081;-91
2024/01/04 08:04:46;;;;;;;14.00;6.88;;;;;;;;;;10339250;23;20045;-93
2024/01/04 08:08:50;;;;;;;11.23;6.00;;;;;;;;;;10358640;23;20032;-92
2024/01/04 08:12:56;;;;;;;10.32;5.53;;;;;;;;;;10343158;23;20127;-92
2024/01/04 08:21:19;;;;;;;7.30;4.40;;;;;;;;;;10310749;23;20058;-92
2024/01/04 08:25:22;;;;;;;8.95;4.50;;;;;;;;;;10357753;23;20026;-91
2024/01/04 08:29:25;;;;;;;6.20;3.60;;;;;;;;;;10340876;23;20020;-91
2024/01/04 08:33:28;;;;;;;7.13;4.30;;;;;;;;;;10313935;23;20036;-92
2024/01/04 08:37:32;;;;;;;8.02;4.60;;;;;;;;;;10339612;23;20026;-91
2024/01/04 08:41:35;;;;;;;53.88;18.40;;;;;;;;;;10312402;23;20016;-91
2024/01/04 08:45:38;;;;;;;19.17;8.27;;;;;;;;;;10339271;23;20016;-90
2024/01/04 08:49:41;;;;;;;20.38;10.10;;;;;;;;;;10339377;23;20039;-91
2024/01/04 08:53:45;;;;;;;7.13;4.38;;;;;;;;;;10339160;23;20023;-91
2024/01/04 08:57:48;;;;;;;14.15;7.55;;;;;;;;;;10339325;23;20020;-91
2024/01/04 09:01:51;;;;;;;9.95;5.00;;;;;;;;;;10339071;23;20468;-91
2024/01/04 09:05:54;;;;;;;8.30;4.82;;;;;;;;;;10339599;23;20016;-92
2024/01/04 09:09:59;;;;;;;8.18;4.93;;;;;;;;;;10339013;23;20467;-91
2024/01/04 09:14:05;;;;;;;8.98;5.15;;;;;;;;;;10338627;23;20047;-91
2024/01/04 09:18:08;;;;;;;11.30;6.95;;;;;;;;;;10355440;23;20074;-91
2024/01/04 09:22:11;;;;;;;10.38;5.57;;;;;;;;;;10338882;23;20016;-91
2024/01/04 09:26:15;;;;;;;17.02;9.27;;;;;;;;;;10338687;23;20020;-91
2024/01/04 09:30:19;;;;;;;9.68;6.35;;;;;;;;;;10338606;23;20325;-91
2024/01/04 09:34:24;;;;;;;8.55;4.18;;;;;;;;;;10338881;23;20023;-91
2024/01/04 09:38:27;;;;;;;14.00;7.00;;;;;;;;;;10338542;23;20117;-91
2024/01/04 09:42:38;;;;;;;16.23;7.03;;;;;;;;;;10341217;23;20020;-91
2024/01/04 09:46:46;;;;;;;11.77;6.35;;;;;;;;;;10357093;23;20016;-91
2024/01/04 09:50:56;;;;;;;16.00;9.02;;;;;;;;;;10356923;23;20330;-91
2024/01/04 09:55:03;;;;;;;12.38;6.18;;;;;;;;;;10357426;23;20437;-91
2024/01/04 09:59:08;;;;;;;17.10;7.22;;;;;;;;;;10342821;23;20024;-92
2024/01/04 10:03:12;;;;;;;8.13;4.20;;;;;;;;;;10340715;23;20050;-91
2024/01/04 10:07:23;;;;;;;8.20;4.30;;;;;;;;;;10340929;23;20024;-91
2024/01/04 10:11:34;;;;;;;9.80;5.50;;;;;;;;;;10313064;23;20024;-90
2024/01/04 10:15:43;;;;;;;13.38;7.85;;;;;;;;;;10355595;23;20024;-90
2024/01/04 10:19:46;;;;;;;10.18;5.32;;;;;;;;;;10356489;23;20059;-91
2024/01/04 10:23:58;;;;;;;11.00;6.55;;;;;;;;;;10337698;23;20042;-91
2024/01/04 10:28:03;;;;;;;9.40;4.85;;;;;;;;;;10354825;23;20016;-91
2024/01/04 10:32:13;;;;;;;8.45;5.00;;;;;;;;;;10355155;23;20020;-92
2024/01/04 10:36:17;;;;;;;21.17;8.35;;;;;;;;;;10355618;23;20024;-91
2024/01/04 10:40:21;;;;;;;14.80;8.35;;;;;;;;;;10311658;23;20098;-91
2024/01/04 10:44:24;;;;;;;16.70;9.05;;;;;;;;;;10340134;23;20319;-91
2024/01/04 10:48:28;;;;;;;11.70;4.88;;;;;;;;;;10338630;23;20023;-92
2024/01/04 10:52:32;;;;;;;7.20;4.15;;;;;;;;;;10337387;23;20016;-92
2024/01/04 10:56:36;;;;;;;7.57;3.63;;;;;;;;;;10337417;23;20051;-91
2024/01/04 11:00:40;;;;;;;13.63;7.03;;;;;;;;;;10336833;23;20020;-91
2024/01/04 11:04:50;;;;;;;8.98;4.35;;;;;;;;;;10337405;23;20020;-91
2024/01/04 11:08:56;;;;;;;13.70;7.73;;;;;;;;;;10354009;23;20027;-90
2024/01/04 11:13:00;;;;;;;12.25;6.05;;;;;;;;;;10336903;23;20761;-91
2024/01/04 11:17:35;;;;;;;7.53;4.38;;;;;;;;;;10336834;23;20361;-89
2024/01/04 11:22:07;;;;;;;10.95;6.25;;;;;;;;;;10301086;23;20051;-91
2024/01/04 11:26:23;;;;;;;7.53;4.55;;;;;;;;;;10353718;23;20504;-91
2024/01/04 11:30:27;;;;;;;13.68;7.28;;;;;;;;;;10354105;23;20020;-91
2024/01/04 11:34:30;;;;;;;13.10;5.93;;;;;;;;;;10311060;23;20396;-92
2024/01/04 11:38:41;;;;;;;15.30;7.72;;;;;;;;;;10340796;23;20103;-90
2024/01/04 11:42:44;;;;;;;10.98;6.15;;;;;;;;;;10357742;23;20056;-89
2024/01/04 11:46:47;;;;;;;8.75;5.65;;;;;;;;;;10340345;23;20016;-90
2024/01/04 11:50:51;;;;;;;11.98;6.93;;;;;;;;;;10340464;23;20023;-91
2024/01/04 11:54:56;;;;;;;16.48;7.25;;;;;;;;;;10340555;23;20020;-91
2024/01/04 11:59:10;;;;;;;6.43;3.40;;;;;;;;;;10341767;23;20017;-91
2024/01/04 12:03:14;;;;;;;10.85;5.05;;;;;;;;;;10340073;23;20337;-91
2024/01/04 12:07:18;;;;;;;6.95;3.78;;;;;;;;;;10340402;23;20055;-92
2024/01/04 12:11:22;;;;;;;6.65;3.50;;;;;;;;;;10341520;23;20027;-91
2024/01/04 12:15:25;;;;;;;6.15;3.40;;;;;;;;;;10340957;23;20048;-92
2024/01/04 12:19:28;;;;;;;8.30;4.50;;;;;;;;;;10342926;23;20381;-92
2024/01/04 12:23:35;;;;;;;6.95;3.20;;;;;;;;;;10343083;23;20023;-91
2024/01/04 12:27:40;;;;;;;7.65;3.63;;;;;;;;;;10342391;23;20024;-91
2024/01/04 12:31:45;;;;;;;7.65;4.10;;;;;;;;;;10341449;23;20020;-91
2024/01/04 12:35:57;;;;;;;17.58;8.23;;;;;;;;;;10344514;23;20062;-91
2024/01/04 12:40:07;;;;;;;7.15;4.00;;;;;;;;;;10360692;23;20501;-91
2024/01/04 12:44:12;;;;;;;16.65;8.05;;;;;;;;;;10341695;23;20063;-92
2024/01/04 12:48:20;;;;;;;13.23;6.10;;;;;;;;;;10342532;23;20038;-91
2024/01/04 12:52:23;;;;;;;7.82;4.13;;;;;;;;;;10359241;23;20023;-93
2024/01/04 12:56:26;;;;;;;10.32;5.15;;;;;;;;;;10315308;23;20016;-91
2024/01/04 13:00:31;;;;;;;9.90;4.50;;;;;;;;;;10340747;23;20026;-91
2024/01/04 13:04:34;;;;;;;8.05;4.53;;;;;;;;;;10340290;23;20475;-92
2024/01/04 13:08:37;;;;;;;7.13;3.65;;;;;;;;;;10339589;23;20016;-90
2024/01/04 13:12:41;;;;;;;8.32;3.67;;;;;;;;;;10339650;23;20027;-91
2024/01/04 13:16:47;;;;;;;9.20;4.45;;;;;;;;;;10340193;23;20684;-91
2024/01/04 13:20:50;;;;;;;13.10;6.95;;;;;;;;;;10362360;23;20016;-92
2024/01/04 13:24:54;;;;;;;6.60;3.17;;;;;;;;;;10345675;23;20043;-90
2024/01/04 13:29:00;;;;;;;14.48;8.38;;;;;;;;;;10349928;23;20027;-91
2024/01/04 13:33:05;;;;;;;14.70;8.00;;;;;;;;;;10314880;23;20452;-92
2024/01/04 13:37:08;;;;;;;15.90;8.55;;;;;;;;;;10339615;23;20448;-91
2024/01/04 13:41:10;;;;;;;11.38;5.07;;;;;;;;;;10314788;23;20059;-91
2024/01/04 13:45:18;;;;;;;9.57;5.18;;;;;;;;;;10342198;23;20071;-93
2024/01/04 13:49:23;;;;;;;14.60;7.22;;;;;;;;;;10359036;23;20024;-91
2024/01/04 13:53:26;;;;;;;11.38;6.45;;;;;;;;;;10359263;23;20020;-91
2024/01/04 13:57:29;;;;;;;22.40;12.20;;;;;;;;;;10344241;23;20503;-89
2024/01/04 14:01:33;;;;;;;10.38;6.53;;;;;;;;;;10340622;23;20066;-92
2024/01/04 14:05:38;;;;;;;8.95;4.50;;;;;;;;;;10339138;23;20039;-91
2024/01/04 14:09:41;;;;;;;14.07;7.90;;;;;;;;;;10338134;23;20020;-90
2024/01/04 14:13:44;;;;;;;22.73;10.65;;;;;;;;;;10338101;23;20023;-90
2024/01/04 14:17:47;;;;;;;36.92;16.40;;;;;;;;;;10337888;23;20016;-90
2024/01/04 14:21:51;;;;;;;46.80;17.65;;;;;;;;;;10339709;23;20639;-90
2024/01/04 14:25:54;;;;;;;49.05;23.90;;;;;;;;;;10341232;23;20384;-90
2024/01/04 14:29:57;;;;;;;30.73;14.13;;;;;;;;;;10339114;23;20024;-90
2024/01/04 14:34:01;;;;;;;14.07;9.43;;;;;;;;;;10339670;23;20077;-90
2024/01/04 14:38:06;;;;;;;12.40;7.18;;;;;;;;;;10340334;23;20109;-91
2024/01/04 14:42:09;;;;;;;18.90;10.57;;;;;;;;;;10341197;23;20048;-90
2024/01/04 14:46:21;;;;;;;18.08;8.90;;;;;;;;;;10315451;23;20089;-92
2024/01/04 14:50:28;;;;;;;13.38;6.30;;;;;;;;;;10315025;23;20012;-91
2024/01/04 14:54:33;;;;;;;15.25;8.80;;;;;;;;;;10357095;23;20020;-91
2024/01/04 14:58:35;;;;;;;14.98;9.00;;;;;;;;;;10311917;23;20404;-91
2024/01/04 15:02:39;;;;;;;10.88;8.00;;;;;;;;;;10338831;23;20111;-93
2024/01/04 15:06:43;;;;;;;15.60;6.78;;;;;;;;;;10311648;23;20023;-92
2024/01/04 15:10:49;;;;;;;15.98;7.97;;;;;;;;;;10339092;23;20099;-90
2024/01/04 15:14:52;;;;;;;19.35;7.18;;;;;;;;;;10355262;23;20026;-90
2024/01/04 15:18:55;;;;;;;10.88;4.85;;;;;;;;;;10339191;23;20413;-92
2024/01/04 15:22:58;;;;;;;11.48;5.72;;;;;;;;;;10341001;23;20095;-91
2024/01/04 15:27:08;;;;;;;8.52;4.13;;;;;;;;;;10340029;23;20027;-91
2024/01/04 15:31:12;;;;;;;5.78;3.30;;;;;;;;;;10357661;23;20024;-93
2024/01/04 15:35:15;;;;;;;5.70;2.60;;;;;;;;;;10340752;23;20016;-91
2024/01/04 15:39:18;;;;;;;3.25;2.10;;;;;;;;;;10341848;23;20050;-91
2024/01/04 15:43:23;;;;;;;2.75;1.75;;;;;;;;;;10313307;23;20021;-91
2024/01/04 15:47:26;;;;;;;2.67;1.58;;;;;;;;;;10340458;23;20016;-90
2024/01/04 15:51:30;;;;;;;5.75;2.58;;;;;;;;;;10339611;23;20445;-91
2024/01/04 15:55:33;;;;;;;9.02;4.88;;;;;;;;;;10339873;23;20460;-91
2024/01/04 15:59:38;;;;;;;14.48;7.30;;;;;;;;;;10337737;23;20027;-91
2024/01/04 16:03:41;;;;;;;9.55;5.15;;;;;;;;;;10354392;23;20024;-92
2024/01/04 16:07:44;;;;;;;10.02;5.35;;;;;;;;;;10337030;23;20020;-92
2024/01/04 16:11:47;;;;;;;11.98;6.75;;;;;;;;;;10336897;23;20453;-91
2024/01/04 16:15:51;;;;;;;6.53;3.13;;;;;;;;;;10337146;23;20016;-92
2024/01/04 16:19:54;;;;;;;9.20;4.65;;;;;;;;;;10310161;23;20469;-92
2024/01/04 16:23:57;;;;;;;7.63;4.05;;;;;;;;;;10338738;23;20519;-92
2024/01/04 16:28:00;;;;;;;4.50;2.92;;;;;;;;;;10339884;23;20012;-92
2024/01/04 16:32:06;;;;;;;7.70;3.80;;;;;;;;;;10339867;23;20012;-92
2024/01/04 16:36:10;;;;;;;15.95;7.65;;;;;;;;;;10357700;23;20150;-91
2024/01/04 16:40:18;;;;;;;7.70;3.72;;;;;;;;;;10341521;23;20103;-91
2024/01/04 16:44:21;;;;;;;8.77;3.97;;;;;;;;;;10364493;23;20018;-91
2024/01/04 16:48:26;;;;;;;6.63;3.05;;;;;;;;;;10341532;23;20016;-90
2024/01/04 16:52:29;;;;;;;8.73;4.15;;;;;;;;;;10314723;23;20089;-92
2024/01/04 16:56:32;;;;;;;6.65;3.10;;;;;;;;;;10339835;23;20082;-90
2024/01/04 17:00:35;;;;;;;6.30;3.38;;;;;;;;;;10339682;23;20020;-91
2024/01/04 17:04:39;;;;;;;5.15;2.70;;;;;;;;;;10340472;23;20020;-91
2024/01/04 17:08:42;;;;;;;5.18;2.53;;;;;;;;;;10314654;23;20394;-91
2024/01/04 17:12:47;;;;;;;10.70;3.88;;;;;;;;;;10340054;23;20016;-91
2024/01/04 17:16:51;;;;;;;5.93;2.60;;;;;;;;;;10339651;23;20093;-91
2024/01/04 17:20:56;;;;;;;6.63;3.22;;;;;;;;;;10340060;23;20038;-91
2024/01/04 17:24:59;;;;;;;5.65;2.55;;;;;;;;;;10314698;23;20012;-91
2024/01/04 17:29:02;;;;;;;18.35;6.93;;;;;;;;;;10339520;23;20047;-91
2024/01/04 17:33:05;;;;;;;9.30;3.50;;;;;;;;;;10339794;23;20024;-91
2024/01/04 17:37:10;;;;;;;9.98;3.97;;;;;;;;;;10339371;23;20071;-90
2024/01/04 17:41:13;;;;;;;10.98;4.32;;;;;;;;;;10339278;23;20126;-91
2024/01/04 17:45:16;;;;;;;5.70;2.65;;;;;;;;;;10338677;23;20016;-91
2024/01/04 17:49:19;;;;;;;3.97;2.10;;;;;;;;;;10339321;23;20030;-92
2024/01/04 17:53:23;;;;;;;4.97;2.40;;;;;;;;;;10338588;23;20157;-92
2024/01/04 17:57:26;;;;;;;6.22;3.42;;;;;;;;;;10340780;23;20066;-91
2024/01/04 18:01:31;;;;;;;3.90;2.35;;;;;;;;;;10346367;23;20026;-92
2024/01/04 18:05:34;;;;;;;12.85;4.65;;;;;;;;;;10338707;23;20083;-91
2024/01/04 18:09:38;;;;;;;10.30;3.45;;;;;;;;;;10338572;23;20023;-90
2024/01/04 18:13:42;;;;;;;4.53;2.60;;;;;;;;;;10339049;23;20345;-92
2024/01/04 18:17:45;;;;;;;9.40;3.42;;;;;;;;;;10337831;23;20016;-91
2024/01/04 18:21:48;;;;;;;16.10;5.00;;;;;;;;;;10338067;23;20023;-91
2024/01/04 18:25:53;;;;;;;4.25;2.45;;;;;;;;;;10339316;23;20016;-91
2024/01/04 18:29:56;;;;;;;8.55;3.20;;;;;;;;;;10337554;23;20352;-91
2024/01/04 18:33:59;;;;;;;4.78;2.95;;;;;;;;;;10338084;23;20023;-91
2024/01/04 18:38:02;;;;;;;5.95;2.92;;;;;;;;;;10337584;23;20441;-90
2024/01/04 18:42:07;;;;;;;7.25;3.63;;;;;;;;;;10337858;23;20069;-90
2024/01/04 18:46:13;;;;;;;8.52;3.67;;;;;;;;;;10338376;23;20020;-92
2024/01/04 18:50:16;;;;;;;8.55;3.85;;;;;;;;;;10355005;23;20028;-91
2024/01/04 18:54:21;;;;;;;8.05;4.13;;;;;;;;;;10341831;23;20054;-91
2024/01/04 18:58:26;;;;;;;7.30;3.67;;;;;;;;;;10337722;23;20437;-91
2024/01/04 19:02:31;;;;;;;7.22;4.03;;;;;;;;;;10341435;23;20020;-91
2024/01/04 19:06:34;;;;;;;7.65;4.38;;;;;;;;;;10310649;23;20020;-93
2024/01/04 19:10:37;;;;;;;10.50;5.22;;;;;;;;;;10337987;23;20024;-92
2024/01/04 19:14:41;;;;;;;17.02;6.13;;;;;;;;;;10338126;23;20023;-92
2024/01/04 19:18:46;;;;;;;9.60;4.78;;;;;;;;;;10337497;23;20027;-92
2024/01/04 19:22:51;;;;;;;12.00;5.43;;;;;;;;;;10337174;23;20016;-92
2024/01/04 19:26:54;;;;;;;8.43;3.70;;;;;;;;;;10353853;23;20437;-92
2024/01/04 19:30:59;;;;;;;6.28;2.63;;;;;;;;;;10337502;23;20445;-92
2024/01/04 19:35:03;;;;;;;11.68;4.22;;;;;;;;;;10337063;23;20024;-91
2024/01/04 19:39:07;;;;;;;15.02;5.00;;;;;;;;;;10338853;23;20024;-92
2024/01/04 19:43:10;;;;;;;5.93;3.17;;;;;;;;;;10339679;23;20404;-92
2024/01/04 19:47:15;;;;;;;16.73;5.55;;;;;;;;;;10338932;23;20437;-92
2024/01/04 19:51:18;;;;;;;12.68;5.22;;;;;;;;;;10344279;23;20111;-90
2024/01/04 19:55:21;;;;;;;8.65;4.50;;;;;;;;;;10343695;23;20046;-91
2024/01/04 19:59:24;;;;;;;9.90;4.57;;;;;;;;;;10343110;23;20051;-91
2024/01/04 20:03:29;;;;;;;9.23;4.90;;;;;;;;;;10241950;23;20025;-91
2024/01/04 20:07:32;;;;;;;7.65;3.85;;;;;;;;;;10241978;23;20025;-93
2024/01/04 20:11:37;;;;;;;6.70;2.78;;;;;;;;;;10242837;23;20025;-90
2024/01/04 20:15:40;;;;;;;4.03;2.72;;;;;;;;;;10243374;23;20049;-92
2024/01/04 20:19:44;;;;;;;15.85;5.22;;;;;;;;;;10241289;23;20483;-91
2024/01/04 20:23:47;;;;;;;4.40;2.13;;;;;;;;;;10241386;23;20027;-91
2024/01/04 20:27:50;;;;;;;4.68;3.10;;;;;;;;;;10240367;23;20339;-92
2024/01/04 20:31:58;;;;;;;4.90;2.95;;;;;;;;;;10239232;23;20493;-91
2024/01/04 20:36:03;;;;;;;7.45;3.25;;;;;;;;;;10240490;23;20013;-92
2024/01/04 20:40:09;;;;;;;6.35;3.78;;;;;;;;;;10241836;23;20103;-92
2024/01/04 20:44:15;;;;;;;7.15;4.22;;;;;;;;;;10257034;23;20385;-92
2024/01/04 20:48:18;;;;;;;3.58;2.20;;;;;;;;;;10240647;23;20092;-92
2024/01/04 20:52:23;;;;;;;5.22;3.60;;;;;;;;;;10241239;23;20052;-91
2024/01/04 20:56:26;;;;;;;6.03;3.83;;;;;;;;;;10242479;23;20027;-91
2024/01/04 21:00:29;;;;;;;6.65;3.90;;;;;;;;;;10265418;23;20016;-92
2024/01/04 21:04:32;;;;;;;6.32;4.05;;;;;;;;;;10339659;23;20027;-92
2024/01/04 21:08:37;;;;;;;5.57;3.53;;;;;;;;;;10339031;23;20023;-91
2024/01/04 21:12:40;;;;;;;6.07;3.22;;;;;;;;;;10339074;23;20016;-91
2024/01/04 21:16:43;;;;;;;9.48;4.38;;;;;;;;;;10312241;23;20095;-93
2024/01/04 21:20:46;;;;;;;7.22;4.20;;;;;;;;;;10339577;23;20051;-90
2024/01/04 21:24:51;;;;;;;7.78;3.63;;;;;;;;;;10339949;23;20341;-90
2024/01/04 21:28:54;;;;;;;5.57;3.25;;;;;;;;;;10338826;23;20047;-91
2024/01/04 21:33:00;;;;;;;4.82;3.17;;;;;;;;;;10339712;23;20151;-90
2024/01/04 21:37:05;;;;;;;8.02;4.63;;;;;;;;;;10356740;23;20023;-90
2024/01/04 21:41:12;;;;;;;8.55;4.90;;;;;;;;;;10355322;23;20055;-92
2024/01/04 21:45:15;;;;;;;9.02;4.93;;;;;;;;;;10356012;23;20548;-90
2024/01/04 21:49:19;;;;;;;13.82;5.35;;;;;;;;;;10340854;23;20095;-89
2024/01/04 21:53:22;;;;;;;8.65;4.07;;;;;;;;;;10343641;23;20024;-89
2024/01/04 21:57:28;;;;;;;10.48;5.18;;;;;;;;;;10342319;23;20539;-92
2024/01/04 22:01:35;;;;;;;8.18;4.75;;;;;;;;;;10349074;23;20047;-88
2024/01/04 22:05:38;;;;;;;5.85;3.60;;;;;;;;;;10357252;23;20016;-90
2024/01/04 22:09:43;;;;;;;7.97;4.68;;;;;;;;;;10339366;23;20027;-88
2024/01/04 22:13:54;;;;;;;5.55;3.63;;;;;;;;;;10356238;23;20094;-89
2024/01/04 22:18:05;;;;;;;6.18;4.18;;;;;;;;;;10338992;23;20042;-91
2024/01/04 22:22:08;;;;;;;8.68;5.03;;;;;;;;;;10355061;23;20020;-90
2024/01/04 22:26:11;;;;;;;8.80;5.30;;;;;;;;;;10338499;23;20020;-89
2024/01/04 22:30:16;;;;;;;8.00;5.05;;;;;;;;;;10338638;23;20082;-90
2024/01/04 22:34:19;;;;;;;8.57;5.32;;;;;;;;;;10355402;23;20016;-90
2024/01/04 22:38:22;;;;;;;8.38;4.72;;;;;;;;;;10338437;23;20043;-89
2024/01/04 22:42:25;;;;;;;14.50;5.68;;;;;;;;;;10339020;23;20039;-89
2024/01/04 22:46:30;;;;;;;10.48;5.68;;;;;;;;;;10338011;23;20016;-89
2024/01/04 22:50:33;;;;;;;8.32;5.57;;;;;;;;;;10338363;23;20016;-92
2024/01/04 22:54:36;;;;;;;7.35;3.60;;;;;;;;;;10338172;23;20030;-89
2024/01/04 22:58:38;;;;;;;13.48;7.28;;;;;;;;;;10337760;23;20486;-90
2024/01/04 23:02:43;;;;;;;8.15;4.93;;;;;;;;;;10337601;23;20103;-89
2024/01/04 23:06:46;;;;;;;11.77;6.57;;;;;;;;;;10337071;23;20122;-90
2024/01/04 23:10:48;;;;;;;14.30;7.20;;;;;;;;;;10337266;23;20039;-88
2024/01/04 23:14:51;;;;;;;13.85;8.32;;;;;;;;;;10337210;23;20354;-88
2024/01/04 23:18:55;;;;;;;17.45;7.57;;;;;;;;;;10337055;23;20047;-88
2024/01/04 23:22:58;;;;;;;11.15;4.78;;;;;;;;;;10337126;23;20020;-88
2024/01/04 23:27:01;;;;;;;14.73;7.50;;;;;;;;;;10350560;23;20016;-91
2024/01/04 23:31:04;;;;;;;7.25;4.78;;;;;;;;;;10351851;23;20023;-90
2024/01/04 23:35:09;;;;;;;15.05;9.13;;;;;;;;;;10343345;23;20054;-90
2024/01/04 23:39:12;;;;;;;16.77;8.02;;;;;;;;;;10343316;23;20089;-90
2024/01/04 23:43:16;;;;;;;14.18;7.85;;;;;;;;;;10343771;23;20016;-89
2024/01/04 23:47:19;;;;;;;14.18;7.22;;;;;;;;;;10343193;23;20020;-90
2024/01/04 23:51:24;;;;;;;13.32;5.88;;;;;;;;;;10343746;23;20381;-90
2024/01/04 23:55:26;;;;;;;10.68;6.50;;;;;;;;;;10343216;23;20085;-90
2024/01/04 23:59:29;;;;;;;16.00;7.63;;;;;;;;;;10342727;23;20050;-89
